createdAt,value
2022-11-07T00:01:21.269Z,95031.50
2022-11-07T00:03:48.127Z,95031.59
2022-11-07T00:06:14.902Z,95034.81
2022-11-07T00:08:41.446Z,95039.25
2022-11-07T00:11:08.119Z,95047.44
2022-11-07T00:13:34.721Z,95043.81
2022-11-07T00:16:06.553Z,95044.34
2022-11-07T00:18:33.598Z,95036.50
2022-11-07T00:21:10.329Z,95035.75
2022-11-07T00:23:40.245Z,95043.56
2022-11-07T00:26:12.834Z,95055.41
2022-11-07T00:28:42.193Z,95050.56
2022-11-07T00:31:10.634Z,95047.97
2022-11-07T00:33:37.190Z,95055.25
2022-11-07T00:36:04.097Z,95061.06
2022-11-07T00:38:30.871Z,95057.50
2022-11-07T00:40:59.428Z,95063.19
2022-11-07T00:43:26.174Z,95053.47
2022-11-07T00:45:53.201Z,95056.63
2022-11-07T00:48:19.957Z,95064.59
2022-11-07T00:50:46.892Z,95065.16
2022-11-07T00:53:13.959Z,95063.66
2022-11-07T00:55:40.739Z,95062.53
2022-11-07T00:58:13.937Z,95076.84
2022-11-07T01:00:41.953Z,95075.94
2022-11-07T01:03:27.315Z,95079.75
2022-11-07T01:06:02.530Z,95086.25
2022-11-07T01:08:31.993Z,95083.84
2022-11-07T01:11:04.694Z,95085.22
2022-11-07T01:13:31.363Z,95095.50
2022-11-07T01:15:57.906Z,95096.81
2022-11-07T01:18:24.498Z,95095.59
2022-11-07T01:20:51.206Z,95085.19
2022-11-07T01:23:18.403Z,95089.91
2022-11-07T01:25:45.130Z,95097.38
2022-11-07T01:28:11.991Z,95103.06
2022-11-07T01:30:43.604Z,95096.41
2022-11-07T01:33:10.464Z,95100.22
2022-11-07T01:35:37.323Z,95103.09
2022-11-07T01:38:04.221Z,95105.72
2022-11-07T01:40:31.112Z,95105.94
2022-11-07T01:42:57.745Z,95105.25
2022-11-07T01:45:30.952Z,95106.78
2022-11-07T01:48:01.665Z,95105.31
2022-11-07T01:50:28.499Z,95109.69
2022-11-07T01:52:56.350Z,95108.63
2022-11-07T01:55:29.160Z,95104.84
2022-11-07T01:57:59.133Z,95103.34
2022-11-07T02:00:26.284Z,95112.31
2022-11-07T02:02:57.738Z,95104.59
2022-11-07T02:05:27.054Z,95109.06
2022-11-07T02:07:54.813Z,95107.00
2022-11-07T02:10:21.821Z,95110.78
2022-11-07T02:12:48.736Z,95111.72
2022-11-07T02:15:15.504Z,95110.94
2022-11-07T02:17:42.099Z,95107.94
2022-11-07T02:20:09.187Z,95108.34
2022-11-07T02:22:44.075Z,95111.41
2022-11-07T02:25:14.054Z,95111.84
2022-11-07T02:27:43.110Z,95104.28
2022-11-07T02:30:13.356Z,95105.78
2022-11-07T02:32:40.469Z,95107.53
2022-11-07T02:35:34.956Z,95113.13
2022-11-07T02:38:05.430Z,95119.28
2022-11-07T02:40:32.594Z,95116.47
2022-11-07T02:43:00.187Z,95114.84
2022-11-07T02:45:30.060Z,95121.81
2022-11-07T02:47:56.931Z,95123.44
2022-11-07T02:50:23.541Z,95131.94
2022-11-07T02:52:50.268Z,95119.47
2022-11-07T02:55:17.133Z,95116.94
2022-11-07T02:57:43.920Z,95104.81
2022-11-07T03:00:12.465Z,95106.34
2022-11-07T03:02:39.308Z,95105.00
2022-11-07T03:05:06.845Z,95095.00
2022-11-07T03:07:33.423Z,95094.31
2022-11-07T03:10:00.022Z,95103.25
2022-11-07T03:12:26.596Z,95101.69
2022-11-07T03:14:53.200Z,95103.66
2022-11-07T03:17:19.857Z,95105.38
2022-11-07T03:19:46.482Z,95115.19
2022-11-07T03:22:13.077Z,95109.88
2022-11-07T03:24:39.633Z,95111.78
2022-11-07T03:27:06.284Z,95111.13
2022-11-07T03:29:33.431Z,95111.34
2022-11-07T03:32:00.043Z,95118.69
2022-11-07T03:34:26.599Z,95117.94
2022-11-07T03:36:53.157Z,95122.84
2022-11-07T03:39:25.512Z,95125.72
2022-11-07T03:41:52.514Z,95121.13
2022-11-07T03:44:19.098Z,95129.09
2022-11-07T03:46:45.675Z,95130.84
2022-11-07T03:49:12.216Z,95127.84
2022-11-07T03:51:38.810Z,95123.41
2022-11-07T03:54:05.444Z,95129.06
2022-11-07T03:56:32.086Z,95133.69
2022-11-07T03:58:58.653Z,95131.66
2022-11-07T04:01:25.385Z,95138.94
2022-11-07T04:03:56.095Z,95131.53
2022-11-07T04:06:23.467Z,95140.03
2022-11-07T04:08:50.077Z,95134.78
2022-11-07T04:11:35.354Z,95137.09
2022-11-07T04:14:20.353Z,95137.38
2022-11-07T04:17:05.405Z,95138.97
2022-11-07T04:19:31.955Z,95138.31
2022-11-07T04:21:58.553Z,95138.03
2022-11-07T04:24:25.136Z,95137.63
2022-11-07T04:27:10.289Z,95138.03
2022-11-07T04:29:36.829Z,95138.69
2022-11-07T04:32:03.522Z,95130.03
2022-11-07T04:34:30.142Z,95136.69
2022-11-07T04:36:56.746Z,95146.72
2022-11-07T04:39:23.349Z,95144.28
2022-11-07T04:41:49.915Z,95142.78
2022-11-07T04:44:16.514Z,95145.50
2022-11-07T04:46:43.238Z,95149.28
2022-11-07T04:49:09.822Z,95148.47
2022-11-07T04:51:42.244Z,95150.78
2022-11-07T04:54:15.857Z,95149.13
2022-11-07T04:56:42.579Z,95156.47
2022-11-07T04:59:09.133Z,95146.84
2022-11-07T05:01:35.755Z,95146.16
2022-11-07T05:04:02.630Z,95152.81
2022-11-07T05:06:29.636Z,95154.72
2022-11-07T05:08:56.250Z,95153.34
2022-11-07T05:11:22.825Z,95156.19
2022-11-07T05:13:49.398Z,95151.72
2022-11-07T05:16:19.660Z,95155.38
2022-11-07T05:18:46.406Z,95159.56
2022-11-07T05:21:13.035Z,95161.16
2022-11-07T05:23:39.676Z,95166.97
2022-11-07T05:26:06.449Z,95175.50
2022-11-07T05:28:39.326Z,95173.59
2022-11-07T05:31:07.691Z,95174.00
2022-11-07T05:33:34.386Z,95163.94
2022-11-07T05:36:15.125Z,95168.28
2022-11-07T05:38:43.794Z,95178.72
2022-11-07T05:41:11.058Z,95186.59
2022-11-07T05:43:38.724Z,95184.41
2022-11-07T05:46:06.068Z,95189.69
2022-11-07T05:48:32.992Z,95185.75
2022-11-07T05:51:00.204Z,95183.03
2022-11-07T05:53:27.428Z,95186.13
2022-11-07T05:55:54.173Z,95188.97
2022-11-07T05:58:21.611Z,95187.34
2022-11-07T06:00:48.749Z,95201.69
2022-11-07T06:03:16.532Z,95191.66
2022-11-07T06:05:46.808Z,95196.09
2022-11-07T06:08:14.664Z,95195.19
2022-11-07T06:10:42.788Z,95191.25
2022-11-07T06:13:13.033Z,95201.09
2022-11-07T06:15:40.959Z,95191.69
2022-11-07T06:18:12.624Z,95196.97
2022-11-07T06:20:39.071Z,95205.66
2022-11-07T06:23:06.382Z,95205.41
2022-11-07T06:25:33.889Z,95200.41
2022-11-07T06:28:02.576Z,95199.66
2022-11-07T06:30:29.436Z,95204.38
2022-11-07T06:33:11.153Z,95195.97
2022-11-07T06:35:37.647Z,95200.06
2022-11-07T06:38:06.272Z,95203.31
2022-11-07T06:40:33.556Z,95199.66
2022-11-07T06:43:26.850Z,95207.25
2022-11-07T06:45:53.513Z,95212.00
2022-11-07T06:48:20.048Z,95216.19
2022-11-07T06:50:46.636Z,95218.38
2022-11-07T06:53:14.676Z,95233.00
2022-11-07T06:55:41.589Z,95224.97
2022-11-07T06:58:08.308Z,95225.41
2022-11-07T07:00:36.333Z,95232.47
2022-11-07T07:03:03.160Z,95225.81
2022-11-07T07:05:29.965Z,95238.00
2022-11-07T07:07:56.576Z,95230.66
2022-11-07T07:10:25.244Z,95236.25
2022-11-07T07:12:53.373Z,95238.00
2022-11-07T07:15:20.276Z,95245.84
2022-11-07T07:17:47.287Z,95244.22
2022-11-07T07:20:13.849Z,95245.69
2022-11-07T07:22:40.482Z,95254.31
2022-11-07T07:25:07.851Z,95250.78
2022-11-07T07:27:34.424Z,95244.94
2022-11-07T07:30:03.244Z,95242.47
2022-11-07T07:32:29.812Z,95251.38
2022-11-07T07:34:56.325Z,95249.53
2022-11-07T07:37:22.876Z,95241.06
2022-11-07T07:39:49.475Z,95240.84
2022-11-07T07:42:16.083Z,95239.09
2022-11-07T07:44:44.948Z,95244.44
2022-11-07T07:47:11.814Z,95243.31
2022-11-07T07:49:38.874Z,95238.75
2022-11-07T07:52:05.689Z,95237.75
2022-11-07T07:54:32.290Z,95249.31
2022-11-07T07:56:58.859Z,95243.22
2022-11-07T07:59:25.435Z,95251.41
2022-11-07T08:01:56.581Z,95249.47
2022-11-07T08:04:24.122Z,95244.19
2022-11-07T08:06:50.670Z,95250.97
2022-11-07T08:09:17.241Z,95250.25
2022-11-07T08:11:43.824Z,95263.06
2022-11-07T08:14:11.571Z,95255.81
2022-11-07T08:16:38.240Z,95256.28
2022-11-07T08:19:04.862Z,95260.06
2022-11-07T08:21:31.543Z,95257.75
2022-11-07T08:23:58.263Z,95263.34
2022-11-07T08:26:26.003Z,95264.66
2022-11-07T08:28:53.817Z,95255.81
2022-11-07T08:31:20.438Z,95261.19
2022-11-07T08:33:47.072Z,95265.41
2022-11-07T08:36:13.728Z,95269.91
2022-11-07T08:38:40.367Z,95275.22
2022-11-07T08:41:06.987Z,95272.09
2022-11-07T08:43:33.650Z,95274.38
2022-11-07T08:46:00.308Z,95268.84
2022-11-07T08:48:28.065Z,95274.75
2022-11-07T08:50:56.454Z,95270.88
2022-11-07T08:53:25.113Z,95271.34
2022-11-07T08:55:52.077Z,95270.19
2022-11-07T08:58:19.465Z,95268.25
2022-11-07T09:00:46.506Z,95265.91
2022-11-07T09:06:00.838Z,95266.19
2022-11-07T09:08:27.532Z,95271.38
2022-11-07T09:10:54.405Z,95272.78
2022-11-07T09:13:21.183Z,95269.56
2022-11-07T09:15:51.399Z,95269.84
2022-11-07T09:18:19.852Z,95274.84
2022-11-07T09:20:47.262Z,95270.25
2022-11-07T09:23:14.236Z,95270.97
2022-11-07T09:25:41.091Z,95275.91
2022-11-07T09:28:07.851Z,95272.53
2022-11-07T09:30:34.631Z,95268.59
2022-11-07T09:33:01.300Z,95270.19
2022-11-07T09:35:28.182Z,95271.97
2022-11-07T09:37:54.843Z,95267.81
2022-11-07T09:40:46.469Z,95268.84
2022-11-07T09:43:39.900Z,95262.72
2022-11-07T09:46:21.831Z,95267.88
2022-11-07T09:48:55.898Z,95269.56
2022-11-07T09:51:35.378Z,95265.16
2022-11-07T09:54:07.749Z,95268.06
2022-11-07T09:56:37.004Z,95271.53
2022-11-07T09:59:15.177Z,95275.44
2022-11-07T10:01:41.937Z,95273.44
2022-11-07T10:04:25.671Z,95275.25
2022-11-07T10:07:09.170Z,95278.56
2022-11-07T10:10:03.173Z,95275.56
2022-11-07T10:12:51.678Z,95275.13
2022-11-07T10:15:30.285Z,95273.47
2022-11-07T10:18:15.168Z,95277.38
2022-11-07T10:21:37.024Z,95281.41
2022-11-07T10:24:09.578Z,95271.50
2022-11-07T10:26:36.998Z,95278.97
2022-11-07T10:29:20.738Z,95276.00
2022-11-07T10:32:24.008Z,95280.78
2022-11-07T10:35:07.808Z,95271.19
2022-11-07T10:37:35.261Z,95273.66
2022-11-07T10:40:01.833Z,95270.19
2022-11-07T10:42:31.652Z,95275.59
2022-11-07T10:44:58.668Z,95266.69
2022-11-07T10:47:27.818Z,95267.06
2022-11-07T10:50:00.239Z,95261.88
2022-11-07T10:52:28.165Z,95258.63
2022-11-07T10:55:06.900Z,95258.38
2022-11-07T10:57:35.501Z,95258.13
2022-11-07T11:00:05.772Z,95260.41
2022-11-07T11:02:45.701Z,95256.53
2022-11-07T11:05:22.261Z,95263.34
2022-11-07T11:07:48.883Z,95257.44
2022-11-07T11:10:28.468Z,95265.44
2022-11-07T11:12:55.287Z,95263.38
2022-11-07T11:15:26.602Z,95265.44
2022-11-07T11:18:07.296Z,95265.00
2022-11-07T11:20:41.196Z,95253.81
2022-11-07T11:23:19.044Z,95259.09
2022-11-07T11:25:48.706Z,95257.53
2022-11-07T11:28:25.264Z,95253.75
2022-11-07T11:30:58.266Z,95254.81
2022-11-07T11:33:35.300Z,95252.06
2022-11-07T11:36:28.346Z,95248.22
2022-11-07T11:39:26.284Z,95247.13
2022-11-07T11:41:56.545Z,95244.28
2022-11-07T11:44:29.054Z,95234.69
2022-11-07T11:47:06.440Z,95237.06
2022-11-07T11:49:43.229Z,95238.63
2022-11-07T11:52:16.913Z,95235.34
2022-11-07T11:54:45.087Z,95224.41
2022-11-07T11:57:23.834Z,95225.69
2022-11-07T11:59:58.203Z,95220.84
2022-11-07T12:02:48.558Z,95226.59
2022-11-07T12:05:15.095Z,95223.53
2022-11-07T12:07:50.673Z,95230.22
2022-11-07T12:10:40.133Z,95217.63
2022-11-07T12:13:29.028Z,95214.47
2022-11-07T12:16:20.634Z,95211.38
2022-11-07T12:18:55.294Z,95215.78
2022-11-07T12:21:33.549Z,95217.03
2022-11-07T12:24:20.973Z,95232.66
2022-11-07T12:27:02.069Z,95223.59
2022-11-07T12:29:31.284Z,95230.88
2022-11-07T12:32:09.943Z,95222.25
2022-11-07T12:34:42.626Z,95221.22
2022-11-07T12:37:19.841Z,95221.03
2022-11-07T12:40:11.503Z,95217.81
2022-11-07T12:43:00.124Z,95211.41
2022-11-07T12:45:52.487Z,95214.13
2022-11-07T12:48:43.707Z,95211.88
2022-11-07T12:51:15.454Z,95202.72
2022-11-07T12:54:16.512Z,95210.88
2022-11-07T12:56:47.332Z,95203.50
2022-11-07T12:59:23.929Z,95207.53
2022-11-07T13:02:04.748Z,95203.13
2022-11-07T13:04:39.387Z,95200.50
2022-11-07T13:07:13.246Z,95206.41
2022-11-07T13:09:51.622Z,95204.44
2022-11-07T13:12:26.441Z,95206.00
2022-11-07T13:14:53.531Z,95199.63
2022-11-07T13:17:27.627Z,95208.94
2022-11-07T13:20:03.621Z,95207.75
2022-11-07T13:22:39.074Z,95207.81
2022-11-07T13:25:16.014Z,95214.38
2022-11-07T13:27:55.646Z,95217.81
2022-11-07T13:30:31.838Z,95218.25
2022-11-07T13:33:00.526Z,95215.59
2022-11-07T13:35:39.788Z,95211.28
2022-11-07T13:38:19.291Z,95208.75
2022-11-07T13:41:04.552Z,95216.19
2022-11-07T13:43:42.222Z,95210.66
2022-11-07T13:46:17.855Z,95216.66
2022-11-07T13:48:56.654Z,95207.63
2022-11-07T13:51:26.292Z,95206.38
2022-11-07T13:53:55.823Z,95203.56
2022-11-07T13:56:35.177Z,95200.16
2022-11-07T13:59:06.434Z,95207.31
2022-11-07T14:01:59.280Z,95200.72
2022-11-07T14:04:28.522Z,95205.31
2022-11-07T14:07:01.408Z,95203.78
2022-11-07T14:09:30.322Z,95207.25
2022-11-07T14:11:57.521Z,95207.59
2022-11-07T14:14:26.492Z,95209.22
2022-11-07T14:17:00.254Z,95205.50
2022-11-07T14:19:27.890Z,95194.34
2022-11-07T14:21:56.013Z,95205.94
2022-11-07T14:24:24.727Z,95203.84
2022-11-07T14:27:05.644Z,95205.84
2022-11-07T14:29:32.608Z,95213.03
2022-11-07T14:32:01.846Z,95207.94
2022-11-07T14:34:28.797Z,95212.72
2022-11-07T14:37:01.534Z,95208.28
2022-11-07T14:39:31.647Z,95206.03
2022-11-07T14:42:00.792Z,95201.69
2022-11-07T14:44:54.518Z,95199.91
2022-11-07T14:47:25.360Z,95194.28
2022-11-07T14:49:52.992Z,95198.88
2022-11-07T14:52:34.517Z,95195.53
2022-11-07T14:55:03.997Z,95205.78
2022-11-07T14:57:35.828Z,95205.56
2022-11-07T15:00:13.173Z,95206.72
2022-11-07T15:02:39.895Z,95209.72
2022-11-07T15:05:21.618Z,95211.03
2022-11-07T15:07:49.716Z,95199.81
2022-11-07T15:10:25.082Z,95214.06
2022-11-07T15:13:04.338Z,95202.09
2022-11-07T15:15:35.902Z,95211.00
2022-11-07T15:18:06.478Z,95214.34
2022-11-07T15:20:37.174Z,95206.38
2022-11-07T15:23:05.855Z,95209.59
2022-11-07T15:25:35.097Z,95204.53
2022-11-07T15:28:58.718Z,95207.22
2022-11-07T15:31:30.028Z,95207.44
2022-11-07T15:33:59.080Z,95212.13
2022-11-07T15:36:25.966Z,95211.63
2022-11-07T15:38:52.694Z,95215.13
2022-11-07T15:41:19.428Z,95207.41
2022-11-07T15:43:46.043Z,95213.72
2022-11-07T15:46:21.966Z,95215.41
2022-11-07T15:48:49.203Z,95215.66
2022-11-07T15:51:15.922Z,95220.59
2022-11-07T15:53:42.664Z,95216.75
2022-11-07T15:56:15.608Z,95220.94
2022-11-07T15:58:42.793Z,95218.44
2022-11-07T16:01:10.035Z,95213.59
2022-11-07T16:03:37.014Z,95217.44
2022-11-07T16:06:16.087Z,95215.19
2022-11-07T16:08:42.718Z,95225.28
2022-11-07T16:11:11.580Z,95227.75
2022-11-07T16:13:39.152Z,95223.72
2022-11-07T16:16:07.026Z,95221.69
2022-11-07T16:18:39.264Z,95220.34
2022-11-07T16:21:06.194Z,95220.63
2022-11-07T16:23:32.887Z,95219.69
2022-11-07T16:25:59.834Z,95224.97
2022-11-07T16:28:30.607Z,95221.63
2022-11-07T16:30:57.878Z,95231.09
2022-11-07T16:33:25.446Z,95219.16
2022-11-07T16:35:55.610Z,95229.06
2022-11-07T16:38:23.756Z,95221.47
2022-11-07T16:40:51.035Z,95219.56
2022-11-07T16:43:18.152Z,95228.13
2022-11-07T16:45:50.900Z,95233.66
2022-11-07T16:48:26.598Z,95238.53
2022-11-07T16:50:54.579Z,95241.09
2022-11-07T16:53:21.975Z,95231.63
2022-11-07T16:55:53.596Z,95233.81
2022-11-07T16:58:26.682Z,95240.56
2022-11-07T17:00:55.120Z,95239.88
2022-11-07T17:03:22.423Z,95239.88
2022-11-07T17:05:52.406Z,95245.69
2022-11-07T17:08:24.489Z,95242.72
2022-11-07T17:10:51.306Z,95242.56
2022-11-07T17:13:18.078Z,95239.97
2022-11-07T17:15:44.881Z,95238.63
2022-11-07T17:18:34.498Z,95245.22
2022-11-07T17:21:01.077Z,95246.28
2022-11-07T17:23:30.368Z,95246.94
2022-11-07T17:26:00.185Z,95251.78
2022-11-07T17:28:26.903Z,95251.66
2022-11-07T17:30:53.494Z,95244.78
2022-11-07T17:33:20.127Z,95246.28
2022-11-07T17:35:47.178Z,95244.13
2022-11-07T17:38:17.202Z,95236.16
2022-11-07T17:40:44.479Z,95242.94
2022-11-07T17:43:11.117Z,95237.69
2022-11-07T17:45:38.236Z,95236.59
2022-11-07T17:48:05.161Z,95239.16
2022-11-07T17:50:31.929Z,95232.66
2022-11-07T17:52:58.597Z,95238.56
2022-11-07T17:55:25.450Z,95239.06
2022-11-07T17:57:52.311Z,95237.97
2022-11-07T18:00:21.827Z,95232.47
2022-11-07T18:02:50.278Z,95230.16
2022-11-07T18:05:19.177Z,95230.81
2022-11-07T18:07:46.587Z,95231.31
2022-11-07T18:10:18.120Z,95243.56
2022-11-07T18:12:44.710Z,95235.94
2022-11-07T18:15:14.699Z,95236.63
2022-11-07T18:17:42.913Z,95237.28
2022-11-07T18:20:10.766Z,95240.16
2022-11-07T18:22:38.603Z,95242.84
2022-11-07T18:25:09.301Z,95235.56
2022-11-07T18:27:35.930Z,95233.25
2022-11-07T18:30:04.045Z,95234.38
2022-11-07T18:32:35.726Z,95229.72
2022-11-07T18:35:04.435Z,95237.56
2022-11-07T18:37:31.071Z,95230.91
2022-11-07T18:39:57.637Z,95235.75
2022-11-07T18:42:24.212Z,95224.78
2022-11-07T18:44:50.865Z,95226.44
2022-11-07T18:47:17.428Z,95228.69
2022-11-07T18:49:44.382Z,95226.63
2022-11-07T18:52:11.015Z,95227.00
2022-11-07T18:54:37.764Z,95223.53
2022-11-07T18:57:04.502Z,95226.56
2022-11-07T18:59:31.124Z,95221.38
2022-11-07T19:01:58.931Z,95217.03
2022-11-07T19:04:25.569Z,95219.47
2022-11-07T19:06:57.830Z,95222.63
2022-11-07T19:09:27.077Z,95221.91
2022-11-07T19:11:54.046Z,95221.34
2022-11-07T19:14:20.693Z,95213.88
2022-11-07T19:16:47.329Z,95221.81
2022-11-07T19:19:13.901Z,95219.16
2022-11-07T19:21:43.744Z,95221.59
2022-11-07T19:24:10.517Z,95222.03
2022-11-07T19:26:39.531Z,95231.72
2022-11-07T19:29:09.809Z,95227.31
2022-11-07T19:31:37.477Z,95226.59
2022-11-07T19:34:05.324Z,95224.19
2022-11-07T19:36:32.702Z,95224.03
2022-11-07T19:38:59.344Z,95222.88
2022-11-07T19:41:26.078Z,95230.44
2022-11-07T19:43:52.716Z,95227.66
2022-11-07T19:46:22.141Z,95226.38
2022-11-07T19:48:50.121Z,95227.84
2022-11-07T19:51:21.991Z,95230.78
2022-11-07T19:53:57.295Z,95224.25
2022-11-07T19:56:25.755Z,95222.84
2022-11-07T19:58:54.754Z,95228.75
2022-11-07T20:01:25.416Z,95230.03
2022-11-07T20:03:52.986Z,95237.22
2022-11-07T20:06:23.415Z,95239.53
2022-11-07T20:08:51.024Z,95240.47
2022-11-07T20:11:20.977Z,95241.63
2022-11-07T20:13:48.133Z,95230.81
2022-11-07T20:16:15.349Z,95236.06
2022-11-07T20:18:42.021Z,95239.06
2022-11-07T20:21:12.923Z,95233.34
2022-11-07T20:23:41.194Z,95234.84
2022-11-07T20:26:13.693Z,95232.84
2022-11-07T20:28:40.366Z,95241.78
2022-11-07T20:31:19.363Z,95239.78
2022-11-07T20:33:46.049Z,95241.03
2022-11-07T20:36:14.608Z,95244.84
2022-11-07T20:38:43.026Z,95245.09
2022-11-07T20:41:10.729Z,95238.44
2022-11-07T20:43:39.333Z,95239.25
2022-11-07T20:46:14.922Z,95238.63
2022-11-07T20:48:42.369Z,95237.97
2022-11-07T20:51:15.482Z,95240.50
2022-11-07T20:53:48.478Z,95241.66
2022-11-07T20:56:16.337Z,95245.13
2022-11-07T20:58:43.491Z,95231.44
2022-11-07T21:01:17.919Z,95239.09
2022-11-07T21:03:44.988Z,95242.69
2022-11-07T21:06:12.830Z,95232.84
2022-11-07T21:08:40.449Z,95231.91
2022-11-07T21:11:07.517Z,95227.22
2022-11-07T21:13:34.921Z,95232.44
2022-11-07T21:16:01.951Z,95222.34
2022-11-07T21:18:28.599Z,95218.16
2022-11-07T21:20:55.150Z,95223.06
2022-11-07T21:23:21.749Z,95227.72
2022-11-07T21:25:48.499Z,95223.94
2022-11-07T21:28:17.830Z,95225.22
2022-11-07T21:30:57.325Z,95230.69
2022-11-07T21:33:24.105Z,95230.97
2022-11-07T21:35:50.687Z,95230.28
2022-11-07T21:38:17.264Z,95233.34
2022-11-07T21:40:43.801Z,95237.06
2022-11-07T21:43:11.376Z,95233.63
2022-11-07T21:45:38.503Z,95238.31
2022-11-07T21:48:05.367Z,95236.53
2022-11-07T21:50:44.195Z,95233.13
2022-11-07T21:53:11.527Z,95246.44
2022-11-07T21:55:38.133Z,95242.44
2022-11-07T21:58:04.686Z,95240.81
2022-11-07T22:00:35.800Z,95245.84
2022-11-07T22:03:02.927Z,95251.00
2022-11-07T22:05:29.498Z,95248.56
2022-11-07T22:07:56.524Z,95241.84
2022-11-07T22:10:23.215Z,95242.75
2022-11-07T22:12:52.292Z,95249.41
2022-11-07T22:15:18.896Z,95249.69
2022-11-07T22:17:45.458Z,95238.66
2022-11-07T22:20:12.619Z,95245.19
2022-11-07T22:22:39.204Z,95248.25
2022-11-07T22:25:06.519Z,95234.69
2022-11-07T22:27:33.083Z,95234.38
2022-11-07T22:29:59.688Z,95228.75
2022-11-07T22:32:26.309Z,95227.84
2022-11-07T22:34:52.889Z,95228.97
2022-11-07T22:37:19.425Z,95230.41
2022-11-07T22:39:46.014Z,95229.69
2022-11-07T22:42:12.577Z,95225.06
2022-11-07T22:44:39.169Z,95222.22
2022-11-07T22:47:05.785Z,95223.78
2022-11-07T22:49:32.684Z,95226.66
2022-11-07T22:51:59.262Z,95224.44
2022-11-07T22:54:25.887Z,95224.84
2022-11-07T22:56:52.511Z,95222.28
2022-11-07T22:59:19.247Z,95219.13
2022-11-07T23:01:45.950Z,95218.59
2022-11-07T23:04:18.018Z,95222.09
2022-11-07T23:06:45.215Z,95218.09
2022-11-07T23:09:16.197Z,95217.28
2022-11-07T23:11:48.290Z,95206.47
2022-11-07T23:14:18.086Z,95212.69
2022-11-07T23:16:50.533Z,95205.38
2022-11-07T23:19:20.110Z,95204.66
2022-11-07T23:21:46.970Z,95215.13
2022-11-07T23:24:13.761Z,95205.75
2022-11-07T23:26:40.510Z,95206.66
2022-11-07T23:29:18.964Z,95204.31
2022-11-07T23:31:47.555Z,95201.06
2022-11-07T23:34:14.791Z,95198.00
2022-11-07T23:36:43.941Z,95201.56
2022-11-07T23:39:19.882Z,95201.66
2022-11-07T23:41:46.970Z,95196.91
2022-11-07T23:44:14.883Z,95194.63
2022-11-07T23:47:00.610Z,95189.53
2022-11-07T23:49:36.131Z,95196.25
2022-11-07T23:52:03.582Z,95191.47
2022-11-07T23:54:48.684Z,95190.25
2022-11-07T23:57:15.382Z,95194.91
